sensor_id;sensor_type;location;lat;lon;timestamp;P1;durP1;ratioP1;P2;durP2;ratioP2
14181;SDS011;7171;50.936;6.764;2023-08-24T00:00:15;1.38;;;0.88;;
14181;SDS011;7171;50.936;6.764;2023-08-24T00:02:43;1.85;;;1.00;;
14181;SDS011;7171;50.936;6.764;2023-08-24T00:05:09;1.30;;;1.20;;
14181;SDS011;7171;50.936;6.764;2023-08-24T00:07:36;1.33;;;1.08;;
14181;SDS011;7171;50.936;6.764;2023-08-24T00:10:03;1.60;;;0.98;;
14181;SDS011;7171;50.936;6.764;2023-08-24T00:12:32;2.25;;;1.05;;
14181;SDS011;7171;50.936;6.764;2023-08-24T00:15:00;2.78;;;1.10;;
14181;SDS011;7171;50.936;6.764;2023-08-24T00:17:27;1.27;;;1.13;;
14181;SDS011;7171;50.936;6.764;2023-08-24T00:19:54;1.30;;;1.05;;
14181;SDS011;7171;50.936;6.764;2023-08-24T00:22:21;1.40;;;1.00;;
14181;SDS011;7171;50.936;6.764;2023-08-24T00:24:48;1.65;;;1.17;;
14181;SDS011;7171;50.936;6.764;2023-08-24T00:27:15;1.40;;;1.05;;
14181;SDS011;7171;50.936;6.764;2023-08-24T00:29:43;1.00;;;0.90;;
14181;SDS011;7171;50.936;6.764;2023-08-24T00:32:10;1.40;;;1.13;;
14181;SDS011;7171;50.936;6.764;2023-08-24T00:34:36;1.40;;;1.27;;
14181;SDS011;7171;50.936;6.764;2023-08-24T00:37:03;2.15;;;1.23;;
14181;SDS011;7171;50.936;6.764;2023-08-24T00:39:30;0.93;;;0.90;;
14181;SDS011;7171;50.936;6.764;2023-08-24T00:41:57;1.10;;;1.00;;
14181;SDS011;7171;50.936;6.764;2023-08-24T00:44:24;1.17;;;1.08;;
14181;SDS011;7171;50.936;6.764;2023-08-24T00:46:52;1.58;;;1.20;;
14181;SDS011;7171;50.936;6.764;2023-08-24T00:49:20;1.67;;;1.40;;
14181;SDS011;7171;50.936;6.764;2023-08-24T00:51:47;1.20;;;1.10;;
14181;SDS011;7171;50.936;6.764;2023-08-24T00:54:15;1.60;;;1.05;;
14181;SDS011;7171;50.936;6.764;2023-08-24T00:56:42;1.08;;;0.95;;
14181;SDS011;7171;50.936;6.764;2023-08-24T00:59:09;6.97;;;1.10;;
14181;SDS011;7171;50.936;6.764;2023-08-24T01:01:35;1.67;;;1.17;;
14181;SDS011;7171;50.936;6.764;2023-08-24T01:04:04;1.90;;;0.93;;
14181;SDS011;7171;50.936;6.764;2023-08-24T01:06:32;1.25;;;1.10;;
14181;SDS011;7171;50.936;6.764;2023-08-24T01:08:59;1.10;;;0.90;;
14181;SDS011;7171;50.936;6.764;2023-08-24T01:11:27;1.50;;;1.23;;
14181;SDS011;7171;50.936;6.764;2023-08-24T01:14:04;1.23;;;1.02;;
14181;SDS011;7171;50.936;6.764;2023-08-24T01:16:34;3.72;;;1.20;;
14181;SDS011;7171;50.936;6.764;2023-08-24T01:19:07;2.55;;;1.20;;
14181;SDS011;7171;50.936;6.764;2023-08-24T01:21:47;2.22;;;1.60;;
14181;SDS011;7171;50.936;6.764;2023-08-24T01:24:17;1.05;;;0.95;;
14181;SDS011;7171;50.936;6.764;2023-08-24T01:26:52;1.25;;;1.15;;
14181;SDS011;7171;50.936;6.764;2023-08-24T01:29:21;3.13;;;1.38;;
14181;SDS011;7171;50.936;6.764;2023-08-24T01:31:48;1.17;;;1.08;;
14181;SDS011;7171;50.936;6.764;2023-08-24T01:34:15;1.10;;;1.00;;
14181;SDS011;7171;50.936;6.764;2023-08-24T01:36:43;1.13;;;1.02;;
14181;SDS011;7171;50.936;6.764;2023-08-24T01:39:11;1.88;;;1.23;;
14181;SDS011;7171;50.936;6.764;2023-08-24T01:41:43;1.60;;;1.20;;
14181;SDS011;7171;50.936;6.764;2023-08-24T01:44:17;2.38;;;1.00;;
14181;SDS011;7171;50.936;6.764;2023-08-24T01:46:46;1.20;;;1.10;;
14181;SDS011;7171;50.936;6.764;2023-08-24T01:49:15;1.52;;;1.25;;
14181;SDS011;7171;50.936;6.764;2023-08-24T01:51:43;1.70;;;1.10;;
14181;SDS011;7171;50.936;6.764;2023-08-24T01:54:11;1.25;;;1.15;;
14181;SDS011;7171;50.936;6.764;2023-08-24T01:56:39;1.27;;;1.17;;
14181;SDS011;7171;50.936;6.764;2023-08-24T01:59:06;1.95;;;1.17;;
14181;SDS011;7171;50.936;6.764;2023-08-24T02:01:34;2.28;;;1.33;;
14181;SDS011;7171;50.936;6.764;2023-08-24T02:04:01;1.30;;;1.08;;
14181;SDS011;7171;50.936;6.764;2023-08-24T02:06:28;1.50;;;1.40;;
14181;SDS011;7171;50.936;6.764;2023-08-24T02:08:55;1.25;;;1.10;;
14181;SDS011;7171;50.936;6.764;2023-08-24T02:11:21;1.23;;;1.13;;
14181;SDS011;7171;50.936;6.764;2023-08-24T02:13:48;1.35;;;1.02;;
14181;SDS011;7171;50.936;6.764;2023-08-24T02:16:15;1.23;;;1.13;;
14181;SDS011;7171;50.936;6.764;2023-08-24T02:18:43;1.05;;;0.98;;
14181;SDS011;7171;50.936;6.764;2023-08-24T02:21:10;1.10;;;1.00;;
14181;SDS011;7171;50.936;6.764;2023-08-24T02:23:39;1.45;;;1.35;;
14181;SDS011;7171;50.936;6.764;2023-08-24T02:26:06;1.40;;;1.20;;
14181;SDS011;7171;50.936;6.764;2023-08-24T02:28:34;1.50;;;1.13;;
14181;SDS011;7171;50.936;6.764;2023-08-24T02:31:02;2.30;;;1.25;;
14181;SDS011;7171;50.936;6.764;2023-08-24T02:33:30;1.05;;;0.93;;
14181;SDS011;7171;50.936;6.764;2023-08-24T02:35:58;1.55;;;1.00;;
14181;SDS011;7171;50.936;6.764;2023-08-24T02:38:25;1.55;;;1.30;;
14181;SDS011;7171;50.936;6.764;2023-08-24T02:40:59;2.33;;;1.23;;
14181;SDS011;7171;50.936;6.764;2023-08-24T02:43:27;2.88;;;1.10;;
14181;SDS011;7171;50.936;6.764;2023-08-24T02:45:55;1.23;;;1.13;;
14181;SDS011;7171;50.936;6.764;2023-08-24T02:48:29;1.13;;;0.93;;
14181;SDS011;7171;50.936;6.764;2023-08-24T02:50:56;1.30;;;1.20;;
14181;SDS011;7171;50.936;6.764;2023-08-24T02:53:25;1.63;;;1.17;;
14181;SDS011;7171;50.936;6.764;2023-08-24T02:55:52;1.48;;;1.10;;
14181;SDS011;7171;50.936;6.764;2023-08-24T02:58:19;1.92;;;1.30;;
14181;SDS011;7171;50.936;6.764;2023-08-24T03:00:46;1.20;;;1.10;;
14181;SDS011;7171;50.936;6.764;2023-08-24T03:03:13;1.45;;;1.20;;
14181;SDS011;7171;50.936;6.764;2023-08-24T03:05:40;1.48;;;1.30;;
14181;SDS011;7171;50.936;6.764;2023-08-24T03:08:08;1.33;;;1.15;;
14181;SDS011;7171;50.936;6.764;2023-08-24T03:10:35;1.50;;;1.40;;
14181;SDS011;7171;50.936;6.764;2023-08-24T03:13:02;1.08;;;1.00;;
14181;SDS011;7171;50.936;6.764;2023-08-24T03:15:29;2.85;;;1.33;;
14181;SDS011;7171;50.936;6.764;2023-08-24T03:17:57;0.80;;;0.80;;
14181;SDS011;7171;50.936;6.764;2023-08-24T03:20:24;3.80;;;1.55;;
14181;SDS011;7171;50.936;6.764;2023-08-24T03:22:50;1.20;;;1.10;;
14181;SDS011;7171;50.936;6.764;2023-08-24T03:25:18;1.45;;;1.30;;
14181;SDS011;7171;50.936;6.764;2023-08-24T03:27:46;1.30;;;1.20;;
14181;SDS011;7171;50.936;6.764;2023-08-24T03:30:13;1.33;;;1.00;;
14181;SDS011;7171;50.936;6.764;2023-08-24T03:32:40;1.20;;;1.10;;
14181;SDS011;7171;50.936;6.764;2023-08-24T03:35:07;1.83;;;1.40;;
14181;SDS011;7171;50.936;6.764;2023-08-24T03:37:34;1.30;;;1.20;;
14181;SDS011;7171;50.936;6.764;2023-08-24T03:40:01;1.70;;;1.23;;
14181;SDS011;7171;50.936;6.764;2023-08-24T03:42:30;2.90;;;1.38;;
14181;SDS011;7171;50.936;6.764;2023-08-24T03:44:58;2.15;;;1.15;;
14181;SDS011;7171;50.936;6.764;2023-08-24T03:47:25;1.40;;;1.30;;
14181;SDS011;7171;50.936;6.764;2023-08-24T03:49:52;1.35;;;1.25;;
14181;SDS011;7171;50.936;6.764;2023-08-24T03:52:20;3.40;;;1.27;;
14181;SDS011;7171;50.936;6.764;2023-08-24T03:54:47;2.67;;;1.35;;
14181;SDS011;7171;50.936;6.764;2023-08-24T03:57:13;1.10;;;1.05;;
14181;SDS011;7171;50.936;6.764;2023-08-24T03:59:42;1.38;;;1.00;;
14181;SDS011;7171;50.936;6.764;2023-08-24T04:02:09;1.42;;;1.20;;
14181;SDS011;7171;50.936;6.764;2023-08-24T04:04:36;2.25;;;0.90;;
14181;SDS011;7171;50.936;6.764;2023-08-24T04:07:03;1.30;;;1.17;;
14181;SDS011;7171;50.936;6.764;2023-08-24T04:09:30;1.50;;;1.13;;
14181;SDS011;7171;50.936;6.764;2023-08-24T04:11:57;1.13;;;1.02;;
14181;SDS011;7171;50.936;6.764;2023-08-24T04:14:23;1.50;;;1.40;;
14181;SDS011;7171;50.936;6.764;2023-08-24T04:16:51;1.63;;;1.30;;
14181;SDS011;7171;50.936;6.764;2023-08-24T04:19:18;1.85;;;1.30;;
14181;SDS011;7171;50.936;6.764;2023-08-24T04:21:45;2.10;;;1.60;;
14181;SDS011;7171;50.936;6.764;2023-08-24T04:24:12;1.48;;;1.35;;
14181;SDS011;7171;50.936;6.764;2023-08-24T04:26:39;2.40;;;1.70;;
14181;SDS011;7171;50.936;6.764;2023-08-24T04:29:05;1.63;;;1.50;;
14181;SDS011;7171;50.936;6.764;2023-08-24T04:31:32;2.67;;;1.83;;
14181;SDS011;7171;50.936;6.764;2023-08-24T04:34:00;1.42;;;1.33;;
14181;SDS011;7171;50.936;6.764;2023-08-24T04:36:28;2.17;;;1.60;;
14181;SDS011;7171;50.936;6.764;2023-08-24T04:38:55;2.42;;;1.55;;
14181;SDS011;7171;50.936;6.764;2023-08-24T04:41:22;2.03;;;1.60;;
14181;SDS011;7171;50.936;6.764;2023-08-24T04:43:49;2.63;;;1.45;;
14181;SDS011;7171;50.936;6.764;2023-08-24T04:46:15;2.15;;;1.73;;
14181;SDS011;7171;50.936;6.764;2023-08-24T04:48:42;3.70;;;1.55;;
14181;SDS011;7171;50.936;6.764;2023-08-24T04:51:10;2.30;;;1.70;;
14181;SDS011;7171;50.936;6.764;2023-08-24T04:53:37;2.78;;;1.60;;
14181;SDS011;7171;50.936;6.764;2023-08-24T04:56:04;2.53;;;1.65;;
14181;SDS011;7171;50.936;6.764;2023-08-24T04:58:32;2.63;;;1.60;;
14181;SDS011;7171;50.936;6.764;2023-08-24T05:00:59;3.72;;;1.63;;
14181;SDS011;7171;50.936;6.764;2023-08-24T05:03:26;1.75;;;1.65;;
14181;SDS011;7171;50.936;6.764;2023-08-24T05:05:53;2.97;;;1.95;;
14181;SDS011;7171;50.936;6.764;2023-08-24T05:08:21;3.63;;;1.80;;
14181;SDS011;7171;50.936;6.764;2023-08-24T05:10:47;2.42;;;1.90;;
14181;SDS011;7171;50.936;6.764;2023-08-24T05:13:14;4.68;;;1.70;;
14181;SDS011;7171;50.936;6.764;2023-08-24T05:15:41;2.25;;;1.60;;
14181;SDS011;7171;50.936;6.764;2023-08-24T05:18:08;2.67;;;1.70;;
14181;SDS011;7171;50.936;6.764;2023-08-24T05:20:34;2.65;;;1.80;;
14181;SDS011;7171;50.936;6.764;2023-08-24T05:23:01;2.72;;;1.98;;
14181;SDS011;7171;50.936;6.764;2023-08-24T05:25:29;3.20;;;1.73;;
14181;SDS011;7171;50.936;6.764;2023-08-24T05:27:57;3.08;;;1.95;;
14181;SDS011;7171;50.936;6.764;2023-08-24T05:30:23;3.40;;;1.92;;
14181;SDS011;7171;50.936;6.764;2023-08-24T05:32:50;2.05;;;1.80;;
14181;SDS011;7171;50.936;6.764;2023-08-24T05:35:17;1.85;;;1.63;;
14181;SDS011;7171;50.936;6.764;2023-08-24T05:37:45;2.33;;;1.85;;
14181;SDS011;7171;50.936;6.764;2023-08-24T05:40:12;2.75;;;1.90;;
14181;SDS011;7171;50.936;6.764;2023-08-24T05:42:40;2.15;;;1.80;;
14181;SDS011;7171;50.936;6.764;2023-08-24T05:45:07;2.10;;;1.90;;
14181;SDS011;7171;50.936;6.764;2023-08-24T05:47:34;2.17;;;1.98;;
14181;SDS011;7171;50.936;6.764;2023-08-24T05:50:00;2.78;;;2.13;;
14181;SDS011;7171;50.936;6.764;2023-08-24T05:52:27;2.45;;;1.92;;
14181;SDS011;7171;50.936;6.764;2023-08-24T05:54:54;2.17;;;1.67;;
14181;SDS011;7171;50.936;6.764;2023-08-24T05:57:21;2.85;;;1.60;;
14181;SDS011;7171;50.936;6.764;2023-08-24T05:59:49;3.25;;;1.98;;
14181;SDS011;7171;50.936;6.764;2023-08-24T06:02:16;2.83;;;1.70;;
14181;SDS011;7171;50.936;6.764;2023-08-24T06:04:42;3.30;;;2.10;;
14181;SDS011;7171;50.936;6.764;2023-08-24T06:07:09;2.10;;;1.77;;
14181;SDS011;7171;50.936;6.764;2023-08-24T06:09:36;4.50;;;1.98;;
14181;SDS011;7171;50.936;6.764;2023-08-24T06:12:03;2.17;;;1.77;;
14181;SDS011;7171;50.936;6.764;2023-08-24T06:14:30;2.15;;;1.80;;
14181;SDS011;7171;50.936;6.764;2023-08-24T06:16:58;2.72;;;2.00;;
14181;SDS011;7171;50.936;6.764;2023-08-24T06:19:25;3.13;;;1.90;;
14181;SDS011;7171;50.936;6.764;2023-08-24T06:21:52;2.10;;;1.90;;
14181;SDS011;7171;50.936;6.764;2023-08-24T06:24:19;2.08;;;1.88;;
14181;SDS011;7171;50.936;6.764;2023-08-24T06:26:45;1.80;;;1.60;;
14181;SDS011;7171;50.936;6.764;2023-08-24T06:29:12;2.88;;;1.83;;
14181;SDS011;7171;50.936;6.764;2023-08-24T06:31:39;2.20;;;1.80;;
14181;SDS011;7171;50.936;6.764;2023-08-24T06:34:07;1.65;;;1.45;;
14181;SDS011;7171;50.936;6.764;2023-08-24T06:36:34;2.90;;;1.77;;
14181;SDS011;7171;50.936;6.764;2023-08-24T06:39:01;2.55;;;1.50;;
14181;SDS011;7171;50.936;6.764;2023-08-24T06:41:32;2.53;;;1.77;;
14181;SDS011;7171;50.936;6.764;2023-08-24T06:43:59;1.70;;;1.45;;
14181;SDS011;7171;50.936;6.764;2023-08-24T06:46:26;2.42;;;1.70;;
14181;SDS011;7171;50.936;6.764;2023-08-24T06:48:52;1.85;;;1.15;;
14181;SDS011;7171;50.936;6.764;2023-08-24T06:51:20;2.20;;;1.85;;
14181;SDS011;7171;50.936;6.764;2023-08-24T06:53:47;2.05;;;1.40;;
14181;SDS011;7171;50.936;6.764;2023-08-24T06:56:14;3.30;;;1.67;;
14181;SDS011;7171;50.936;6.764;2023-08-24T06:58:42;2.00;;;1.88;;
14181;SDS011;7171;50.936;6.764;2023-08-24T07:01:10;1.85;;;1.40;;
14181;SDS011;7171;50.936;6.764;2023-08-24T07:03:37;3.08;;;1.60;;
14181;SDS011;7171;50.936;6.764;2023-08-24T07:06:05;4.70;;;1.77;;
14181;SDS011;7171;50.936;6.764;2023-08-24T07:08:34;2.03;;;1.35;;
14181;SDS011;7171;50.936;6.764;2023-08-24T07:11:00;1.48;;;1.33;;
14181;SDS011;7171;50.936;6.764;2023-08-24T07:13:27;2.38;;;1.42;;
14181;SDS011;7171;50.936;6.764;2023-08-24T07:15:54;2.08;;;1.20;;
14181;SDS011;7171;50.936;6.764;2023-08-24T07:18:21;1.90;;;1.40;;
14181;SDS011;7171;50.936;6.764;2023-08-24T07:20:48;1.65;;;1.55;;
14181;SDS011;7171;50.936;6.764;2023-08-24T07:23:15;1.23;;;1.13;;
14181;SDS011;7171;50.936;6.764;2023-08-24T07:25:43;1.83;;;1.50;;
14181;SDS011;7171;50.936;6.764;2023-08-24T07:28:09;1.83;;;1.70;;
14181;SDS011;7171;50.936;6.764;2023-08-24T07:30:36;2.45;;;1.67;;
14181;SDS011;7171;50.936;6.764;2023-08-24T07:33:03;3.33;;;1.90;;
14181;SDS011;7171;50.936;6.764;2023-08-24T07:35:30;2.40;;;1.45;;
14181;SDS011;7171;50.936;6.764;2023-08-24T07:37:57;2.05;;;1.50;;
14181;SDS011;7171;50.936;6.764;2023-08-24T07:40:27;2.38;;;1.60;;
14181;SDS011;7171;50.936;6.764;2023-08-24T07:42:55;1.95;;;1.35;;
14181;SDS011;7171;50.936;6.764;2023-08-24T07:45:22;1.95;;;1.50;;
14181;SDS011;7171;50.936;6.764;2023-08-24T07:47:49;1.92;;;1.33;;
14181;SDS011;7171;50.936;6.764;2023-08-24T07:50:16;1.88;;;1.63;;
14181;SDS011;7171;50.936;6.764;2023-08-24T07:52:43;1.95;;;1.50;;
14181;SDS011;7171;50.936;6.764;2023-08-24T07:55:09;2.78;;;1.52;;
14181;SDS011;7171;50.936;6.764;2023-08-24T07:57:36;2.15;;;1.48;;
14181;SDS011;7171;50.936;6.764;2023-08-24T08:00:05;1.52;;;1.38;;
14181;SDS011;7171;50.936;6.764;2023-08-24T08:02:34;2.13;;;1.42;;
14181;SDS011;7171;50.936;6.764;2023-08-24T08:05:02;1.50;;;1.30;;
14181;SDS011;7171;50.936;6.764;2023-08-24T08:07:29;1.50;;;1.30;;
14181;SDS011;7171;50.936;6.764;2023-08-24T08:09:56;2.17;;;1.70;;
14181;SDS011;7171;50.936;6.764;2023-08-24T08:12:23;3.13;;;1.50;;
14181;SDS011;7171;50.936;6.764;2023-08-24T08:14:49;1.80;;;1.70;;
14181;SDS011;7171;50.936;6.764;2023-08-24T08:17:18;1.38;;;1.15;;
14181;SDS011;7171;50.936;6.764;2023-08-24T08:19:44;2.15;;;1.48;;
14181;SDS011;7171;50.936;6.764;2023-08-24T08:22:12;3.33;;;1.48;;
14181;SDS011;7171;50.936;6.764;2023-08-24T08:24:38;1.48;;;1.35;;
14181;SDS011;7171;50.936;6.764;2023-08-24T08:27:05;1.48;;;1.25;;
14181;SDS011;7171;50.936;6.764;2023-08-24T08:29:32;2.17;;;1.27;;
14181;SDS011;7171;50.936;6.764;2023-08-24T08:31:59;1.08;;;1.08;;
14181;SDS011;7171;50.936;6.764;2023-08-24T08:34:27;2.10;;;1.42;;
14181;SDS011;7171;50.936;6.764;2023-08-24T08:36:54;1.58;;;1.48;;
14181;SDS011;7171;50.936;6.764;2023-08-24T08:39:21;1.60;;;1.50;;
14181;SDS011;7171;50.936;6.764;2023-08-24T08:41:47;2.15;;;1.35;;
14181;SDS011;7171;50.936;6.764;2023-08-24T08:44:15;2.72;;;1.38;;
14181;SDS011;7171;50.936;6.764;2023-08-24T08:46:42;2.88;;;1.40;;
14181;SDS011;7171;50.936;6.764;2023-08-24T08:49:11;1.42;;;1.33;;
14181;SDS011;7171;50.936;6.764;2023-08-24T08:51:42;1.35;;;1.13;;
14181;SDS011;7171;50.936;6.764;2023-08-24T08:54:09;1.15;;;1.05;;
14181;SDS011;7171;50.936;6.764;2023-08-24T08:56:35;1.27;;;1.17;;
14181;SDS011;7171;50.936;6.764;2023-08-24T08:59:02;1.98;;;1.40;;
14181;SDS011;7171;50.936;6.764;2023-08-24T09:01:33;1.48;;;1.38;;
14181;SDS011;7171;50.936;6.764;2023-08-24T09:04:00;1.67;;;1.20;;
14181;SDS011;7171;50.936;6.764;2023-08-24T09:06:27;1.85;;;1.48;;
14181;SDS011;7171;50.936;6.764;2023-08-24T09:08:55;1.30;;;1.20;;
14181;SDS011;7171;50.936;6.764;2023-08-24T09:11:23;1.55;;;1.27;;
14181;SDS011;7171;50.936;6.764;2023-08-24T09:13:50;1.60;;;1.50;;
14181;SDS011;7171;50.936;6.764;2023-08-24T09:16:16;1.50;;;1.25;;
14181;SDS011;7171;50.936;6.764;2023-08-24T09:18:45;1.20;;;1.10;;
14181;SDS011;7171;50.936;6.764;2023-08-24T09:21:13;3.55;;;1.27;;
14181;SDS011;7171;50.936;6.764;2023-08-24T09:23:43;1.50;;;1.00;;
14181;SDS011;7171;50.936;6.764;2023-08-24T09:26:12;1.58;;;1.30;;
14181;SDS011;7171;50.936;6.764;2023-08-24T09:28:39;3.28;;;1.17;;
14181;SDS011;7171;50.936;6.764;2023-08-24T09:31:08;1.23;;;1.10;;
14181;SDS011;7171;50.936;6.764;2023-08-24T09:33:37;1.33;;;1.10;;
14181;SDS011;7171;50.936;6.764;2023-08-24T09:36:05;1.23;;;1.13;;
14181;SDS011;7171;50.936;6.764;2023-08-24T09:38:33;1.38;;;1.27;;
14181;SDS011;7171;50.936;6.764;2023-08-24T09:41:01;2.08;;;1.30;;
14181;SDS011;7171;50.936;6.764;2023-08-24T09:43:29;1.63;;;1.25;;
14181;SDS011;7171;50.936;6.764;2023-08-24T09:45:56;2.13;;;1.40;;
14181;SDS011;7171;50.936;6.764;2023-08-24T09:48:24;1.58;;;1.20;;
14181;SDS011;7171;50.936;6.764;2023-08-24T09:50:51;1.58;;;1.48;;
14181;SDS011;7171;50.936;6.764;2023-08-24T09:53:18;5.38;;;1.23;;
14181;SDS011;7171;50.936;6.764;2023-08-24T09:55:49;1.40;;;1.30;;
14181;SDS011;7171;50.936;6.764;2023-08-24T09:58:19;1.45;;;1.20;;
14181;SDS011;7171;50.936;6.764;2023-08-24T10:00:49;1.70;;;1.30;;
14181;SDS011;7171;50.936;6.764;2023-08-24T10:03:17;2.25;;;1.38;;
14181;SDS011;7171;50.936;6.764;2023-08-24T10:05:47;1.48;;;1.20;;
14181;SDS011;7171;50.936;6.764;2023-08-24T10:08:16;2.47;;;1.40;;
14181;SDS011;7171;50.936;6.764;2023-08-24T10:10:45;1.15;;;1.00;;
14181;SDS011;7171;50.936;6.764;2023-08-24T10:13:17;1.20;;;1.10;;
14181;SDS011;7171;50.936;6.764;2023-08-24T10:15:46;1.55;;;1.35;;
14181;SDS011;7171;50.936;6.764;2023-08-24T10:18:17;2.40;;;1.15;;
14181;SDS011;7171;50.936;6.764;2023-08-24T10:20:45;1.98;;;1.65;;
14181;SDS011;7171;50.936;6.764;2023-08-24T10:23:12;1.33;;;1.20;;
14181;SDS011;7171;50.936;6.764;2023-08-24T10:25:41;1.45;;;1.10;;
14181;SDS011;7171;50.936;6.764;2023-08-24T10:28:10;1.90;;;1.23;;
14181;SDS011;7171;50.936;6.764;2023-08-24T10:30:37;1.30;;;1.13;;
14181;SDS011;7171;50.936;6.764;2023-08-24T10:33:06;2.08;;;1.52;;
14181;SDS011;7171;50.936;6.764;2023-08-24T10:35:34;3.45;;;1.20;;
14181;SDS011;7171;50.936;6.764;2023-08-24T10:38:02;1.15;;;1.05;;
14181;SDS011;7171;50.936;6.764;2023-08-24T10:40:32;2.53;;;1.55;;
14181;SDS011;7171;50.936;6.764;2023-08-24T10:43:02;2.05;;;1.38;;
14181;SDS011;7171;50.936;6.764;2023-08-24T10:48:22;1.20;;;1.10;;
14181;SDS011;7171;50.936;6.764;2023-08-24T10:53:46;1.08;;;0.98;;
14181;SDS011;7171;50.936;6.764;2023-08-24T10:56:14;1.83;;;1.15;;
14181;SDS011;7171;50.936;6.764;2023-08-24T10:58:42;1.05;;;0.90;;
14181;SDS011;7171;50.936;6.764;2023-08-24T11:01:14;1.10;;;1.00;;
14181;SDS011;7171;50.936;6.764;2023-08-24T11:03:46;2.15;;;1.17;;
14181;SDS011;7171;50.936;6.764;2023-08-24T11:06:18;1.42;;;0.90;;
14181;SDS011;7171;50.936;6.764;2023-08-24T11:08:46;1.35;;;0.90;;
14181;SDS011;7171;50.936;6.764;2023-08-24T11:11:20;1.00;;;0.90;;
14181;SDS011;7171;50.936;6.764;2023-08-24T11:16:43;1.15;;;0.93;;
14181;SDS011;7171;50.936;6.764;2023-08-24T11:19:12;1.10;;;1.00;;
14181;SDS011;7171;50.936;6.764;2023-08-24T11:21:39;1.58;;;1.45;;
14181;SDS011;7171;50.936;6.764;2023-08-24T11:24:07;2.33;;;1.40;;
14181;SDS011;7171;50.936;6.764;2023-08-24T11:26:38;1.63;;;1.10;;
14181;SDS011;7171;50.936;6.764;2023-08-24T11:29:06;0.80;;;0.80;;
14181;SDS011;7171;50.936;6.764;2023-08-24T11:31:33;1.10;;;1.00;;
14181;SDS011;7171;50.936;6.764;2023-08-24T11:34:00;2.33;;;1.30;;
14181;SDS011;7171;50.936;6.764;2023-08-24T11:36:29;1.25;;;1.15;;
14181;SDS011;7171;50.936;6.764;2023-08-24T11:38:57;1.88;;;1.00;;
14181;SDS011;7171;50.936;6.764;2023-08-24T11:41:24;3.35;;;1.35;;
14181;SDS011;7171;50.936;6.764;2023-08-24T11:43:58;1.05;;;0.95;;
14181;SDS011;7171;50.936;6.764;2023-08-24T11:46:27;1.35;;;1.25;;
14181;SDS011;7171;50.936;6.764;2023-08-24T11:48:55;1.52;;;0.98;;
14181;SDS011;7171;50.936;6.764;2023-08-24T11:51:22;1.17;;;1.08;;
14181;SDS011;7171;50.936;6.764;2023-08-24T11:53:50;2.70;;;1.40;;
14181;SDS011;7171;50.936;6.764;2023-08-24T11:56:18;2.45;;;1.55;;
14181;SDS011;7171;50.936;6.764;2023-08-24T11:58:49;2.75;;;1.38;;
14181;SDS011;7171;50.936;6.764;2023-08-24T12:01:16;1.35;;;1.15;;
14181;SDS011;7171;50.936;6.764;2023-08-24T12:03:44;1.83;;;1.23;;
14181;SDS011;7171;50.936;6.764;2023-08-24T12:06:11;2.55;;;1.27;;
14181;SDS011;7171;50.936;6.764;2023-08-24T12:08:39;1.90;;;1.38;;
14181;SDS011;7171;50.936;6.764;2023-08-24T12:11:12;2.38;;;1.27;;
14181;SDS011;7171;50.936;6.764;2023-08-24T12:13:42;2.85;;;1.20;;
14181;SDS011;7171;50.936;6.764;2023-08-24T12:16:10;2.33;;;1.20;;
14181;SDS011;7171;50.936;6.764;2023-08-24T12:18:46;2.22;;;1.30;;
14181;SDS011;7171;50.936;6.764;2023-08-24T12:21:14;1.33;;;1.00;;
14181;SDS011;7171;50.936;6.764;2023-08-24T12:23:41;1.42;;;1.10;;
14181;SDS011;7171;50.936;6.764;2023-08-24T12:26:07;1.13;;;1.05;;
14181;SDS011;7171;50.936;6.764;2023-08-24T12:28:36;3.58;;;1.20;;
14181;SDS011;7171;50.936;6.764;2023-08-24T12:31:02;2.03;;;1.10;;
14181;SDS011;7171;50.936;6.764;2023-08-24T12:33:30;1.55;;;1.40;;
14181;SDS011;7171;50.936;6.764;2023-08-24T12:35:58;3.80;;;1.25;;
14181;SDS011;7171;50.936;6.764;2023-08-24T12:38:25;2.75;;;1.20;;
14181;SDS011;7171;50.936;6.764;2023-08-24T12:40:52;1.40;;;1.23;;
14181;SDS011;7171;50.936;6.764;2023-08-24T12:43:20;1.13;;;1.02;;
14181;SDS011;7171;50.936;6.764;2023-08-24T12:45:48;1.40;;;1.13;;
14181;SDS011;7171;50.936;6.764;2023-08-24T12:48:15;1.60;;;1.30;;
14181;SDS011;7171;50.936;6.764;2023-08-24T12:50:41;2.42;;;1.40;;
14181;SDS011;7171;50.936;6.764;2023-08-24T12:53:08;1.98;;;1.48;;
14181;SDS011;7171;50.936;6.764;2023-08-24T12:55:35;1.85;;;1.40;;
14181;SDS011;7171;50.936;6.764;2023-08-24T12:58:04;1.77;;;1.48;;
14181;SDS011;7171;50.936;6.764;2023-08-24T13:00:31;1.20;;;1.10;;
14181;SDS011;7171;50.936;6.764;2023-08-24T13:02:59;1.40;;;1.25;;
14181;SDS011;7171;50.936;6.764;2023-08-24T13:05:26;1.58;;;1.10;;
14181;SDS011;7171;50.936;6.764;2023-08-24T13:07:53;2.17;;;1.42;;
14181;SDS011;7171;50.936;6.764;2023-08-24T13:10:21;1.70;;;1.40;;
14181;SDS011;7171;50.936;6.764;2023-08-24T13:12:48;1.45;;;1.17;;
14181;SDS011;7171;50.936;6.764;2023-08-24T13:15:14;1.90;;;1.20;;
14181;SDS011;7171;50.936;6.764;2023-08-24T13:17:41;1.20;;;1.10;;
14181;SDS011;7171;50.936;6.764;2023-08-24T13:20:09;2.85;;;1.52;;
14181;SDS011;7171;50.936;6.764;2023-08-24T13:22:36;1.52;;;1.10;;
14181;SDS011;7171;50.936;6.764;2023-08-24T13:25:02;1.25;;;1.08;;
14181;SDS011;7171;50.936;6.764;2023-08-24T13:27:30;1.33;;;1.20;;
14181;SDS011;7171;50.936;6.764;2023-08-24T13:29:59;2.15;;;1.33;;
14181;SDS011;7171;50.936;6.764;2023-08-24T13:32:26;2.47;;;1.13;;
14181;SDS011;7171;50.936;6.764;2023-08-24T13:34:53;1.20;;;1.02;;
14181;SDS011;7171;50.936;6.764;2023-08-24T13:37:22;1.25;;;1.08;;
14181;SDS011;7171;50.936;6.764;2023-08-24T13:39:49;1.30;;;1.20;;
14181;SDS011;7171;50.936;6.764;2023-08-24T13:42:16;1.73;;;1.15;;
14181;SDS011;7171;50.936;6.764;2023-08-24T13:44:44;0.80;;;0.80;;
14181;SDS011;7171;50.936;6.764;2023-08-24T13:47:11;1.48;;;1.23;;
14181;SDS011;7171;50.936;6.764;2023-08-24T13:49:38;1.95;;;1.10;;
14181;SDS011;7171;50.936;6.764;2023-08-24T13:52:04;3.33;;;1.58;;
14181;SDS011;7171;50.936;6.764;2023-08-24T13:54:33;1.20;;;1.00;;
14181;SDS011;7171;50.936;6.764;2023-08-24T13:57:00;2.72;;;1.00;;
14181;SDS011;7171;50.936;6.764;2023-08-24T13:59:27;0.88;;;0.88;;
14181;SDS011;7171;50.936;6.764;2023-08-24T14:02:04;1.42;;;1.08;;
14181;SDS011;7171;50.936;6.764;2023-08-24T14:04:31;1.92;;;1.40;;
14181;SDS011;7171;50.936;6.764;2023-08-24T14:06:58;1.60;;;1.08;;
14181;SDS011;7171;50.936;6.764;2023-08-24T14:09:25;2.45;;;0.98;;
14181;SDS011;7171;50.936;6.764;2023-08-24T14:11:54;1.45;;;1.20;;
14181;SDS011;7171;50.936;6.764;2023-08-24T14:14:22;1.30;;;1.10;;
14181;SDS011;7171;50.936;6.764;2023-08-24T14:16:53;2.53;;;1.27;;
14181;SDS011;7171;50.936;6.764;2023-08-24T14:19:20;1.40;;;1.10;;
14181;SDS011;7171;50.936;6.764;2023-08-24T14:21:47;3.53;;;1.20;;
14181;SDS011;7171;50.936;6.764;2023-08-24T14:24:14;2.35;;;1.10;;
14181;SDS011;7171;50.936;6.764;2023-08-24T14:26:40;1.13;;;1.02;;
14181;SDS011;7171;50.936;6.764;2023-08-24T14:29:12;1.20;;;1.02;;
14181;SDS011;7171;50.936;6.764;2023-08-24T14:31:38;2.08;;;1.50;;
14181;SDS011;7171;50.936;6.764;2023-08-24T14:34:05;1.15;;;1.05;;
14181;SDS011;7171;50.936;6.764;2023-08-24T14:36:32;1.65;;;1.00;;
14181;SDS011;7171;50.936;6.764;2023-08-24T14:38:59;0.90;;;0.90;;
14181;SDS011;7171;50.936;6.764;2023-08-24T14:41:26;1.40;;;1.30;;
14181;SDS011;7171;50.936;6.764;2023-08-24T14:43:52;1.58;;;1.05;;
14181;SDS011;7171;50.936;6.764;2023-08-24T14:46:20;1.52;;;1.40;;
14181;SDS011;7171;50.936;6.764;2023-08-24T14:48:47;1.20;;;1.10;;
14181;SDS011;7171;50.936;6.764;2023-08-24T14:51:14;2.00;;;1.10;;
14181;SDS011;7171;50.936;6.764;2023-08-24T14:53:41;1.73;;;1.30;;
14181;SDS011;7171;50.936;6.764;2023-08-24T14:56:08;0.98;;;0.88;;
14181;SDS011;7171;50.936;6.764;2023-08-24T14:58:35;1.05;;;0.80;;
14181;SDS011;7171;50.936;6.764;2023-08-24T15:01:02;1.00;;;0.88;;
14181;SDS011;7171;50.936;6.764;2023-08-24T15:03:31;0.93;;;0.80;;
14181;SDS011;7171;50.936;6.764;2023-08-24T15:05:58;0.85;;;0.85;;
14181;SDS011;7171;50.936;6.764;2023-08-24T15:08:25;0.80;;;0.80;;
14181;SDS011;7171;50.936;6.764;2023-08-24T15:10:53;1.60;;;1.40;;